Terminal Aerodrome Forecast
Issued by NWS Oklahoma City, OK

Home | Current Version | Previous Version | Text Only | Print | Product List | Glossary On
Versions: 1 2 3 4 5 6 7 8 9 10 11 12 13 14 15 16 17 18 19 20 21 22 23 24
000
FTUS44 KOUN 211725
TAFOUN
TAF
KOUN 211725Z 2118/2218 01012KT P6SM SCT040 BKN080
     FM212000 03013G19KT P6SM BKN050
      TEMPO 2120/2123 4SM -TSRA SCT025 OVC040CB
     FM220100 04008KT P6SM FEW100 SCT250=

USA.gov is the U.S. government's official web portal to all federal, state and local government web resources and services.